sensor_id;sensor_type;location;lat;lon;timestamp;pressure;altitude;pressure_sealevel;temperature;humidity
52935;BME280;38802;50.198;19.796;2023-03-15T00:02:23;94783.35;;;5.88;85.97
52935;BME280;38802;50.198;19.796;2023-03-15T00:04:51;94792.13;;;5.78;85.86
52935;BME280;38802;50.198;19.796;2023-03-15T00:07:21;94793.70;;;5.72;86.22
52935;BME280;38802;50.198;19.796;2023-03-15T00:09:52;94807.70;;;5.63;86.18
52935;BME280;38802;50.198;19.796;2023-03-15T00:12:21;94808.06;;;5.57;86.21
52935;BME280;38802;50.198;19.796;2023-03-15T00:14:52;94812.17;;;5.49;86.42
52935;BME280;38802;50.198;19.796;2023-03-15T00:17:20;94820.92;;;5.41;86.43
52935;BME280;38802;50.198;19.796;2023-03-15T00:19:49;94831.50;;;5.36;86.77
52935;BME280;38802;50.198;19.796;2023-03-15T00:22:17;94844.46;;;5.29;86.83
52935;BME280;38802;50.198;19.796;2023-03-15T00:24:45;94852.17;;;5.26;86.80
52935;BME280;38802;50.198;19.796;2023-03-15T00:27:13;94862.27;;;5.23;87.07
52935;BME280;38802;50.198;19.796;2023-03-15T00:29:42;94872.58;;;5.14;87.05
52935;BME280;38802;50.198;19.796;2023-03-15T00:32:10;94879.61;;;5.13;87.13
52935;BME280;38802;50.198;19.796;2023-03-15T00:34:39;94886.17;;;5.06;87.30
52935;BME280;38802;50.198;19.796;2023-03-15T00:37:07;94887.70;;;5.02;87.41
52935;BME280;38802;50.198;19.796;2023-03-15T00:39:35;94896.16;;;4.95;87.65
52935;BME280;38802;50.198;19.796;2023-03-15T00:42:08;94907.29;;;4.88;87.79
52935;BME280;38802;50.198;19.796;2023-03-15T00:44:36;94916.44;;;4.79;87.75
52935;BME280;38802;50.198;19.796;2023-03-15T00:47:04;94925.63;;;4.69;87.19
52935;BME280;38802;50.198;19.796;2023-03-15T00:49:32;94942.58;;;4.53;86.61
52935;BME280;38802;50.198;19.796;2023-03-15T00:52:02;94957.88;;;4.38;86.45
52935;BME280;38802;50.198;19.796;2023-03-15T00:54:31;94964.74;;;4.27;86.24
52935;BME280;38802;50.198;19.796;2023-03-15T00:57:01;94971.77;;;4.16;85.97
52935;BME280;38802;50.198;19.796;2023-03-15T00:59:31;94994.81;;;4.03;86.23
52935;BME280;38802;50.198;19.796;2023-03-15T01:02:02;95000.02;;;3.90;86.44
52935;BME280;38802;50.198;19.796;2023-03-15T01:04:31;95006.39;;;3.74;86.44
52935;BME280;38802;50.198;19.796;2023-03-15T01:06:59;95015.22;;;3.60;86.26
52935;BME280;38802;50.198;19.796;2023-03-15T01:09:27;95022.91;;;3.49;86.58
52935;BME280;38802;50.198;19.796;2023-03-15T01:11:55;95026.58;;;3.38;86.36
52935;BME280;38802;50.198;19.796;2023-03-15T01:14:23;95028.70;;;3.28;86.45
52935;BME280;38802;50.198;19.796;2023-03-15T01:16:51;95026.45;;;3.19;86.44
52935;BME280;38802;50.198;19.796;2023-03-15T01:19:19;95034.14;;;3.07;86.10
52935;BME280;38802;50.198;19.796;2023-03-15T01:21:47;95044.71;;;2.91;85.70
52935;BME280;38802;50.198;19.796;2023-03-15T01:24:17;95057.66;;;2.83;85.63
52935;BME280;38802;50.198;19.796;2023-03-15T01:26:45;95062.50;;;2.73;84.89
52935;BME280;38802;50.198;19.796;2023-03-15T01:29:13;95075.59;;;2.54;84.78
52935;BME280;38802;50.198;19.796;2023-03-15T01:31:41;95079.39;;;2.44;84.47
52935;BME280;38802;50.198;19.796;2023-03-15T01:34:10;95099.21;;;2.35;83.94
52935;BME280;38802;50.198;19.796;2023-03-15T01:36:38;95108.02;;;2.26;83.53
52935;BME280;38802;50.198;19.796;2023-03-15T01:39:06;95117.39;;;2.14;83.74
52935;BME280;38802;50.198;19.796;2023-03-15T01:41:43;95123.67;;;2.10;83.96
52935;BME280;38802;50.198;19.796;2023-03-15T01:44:13;95130.54;;;2.10;83.73
52935;BME280;38802;50.198;19.796;2023-03-15T01:46:42;95132.38;;;2.08;83.73
52935;BME280;38802;50.198;19.796;2023-03-15T01:49:34;95131.36;;;2.03;83.53
52935;BME280;38802;50.198;19.796;2023-03-15T01:52:05;95127.73;;;2.01;83.39
52935;BME280;38802;50.198;19.796;2023-03-15T01:54:54;95134.81;;;1.97;83.56
52935;BME280;38802;50.198;19.796;2023-03-15T01:57:30;95136.96;;;1.91;83.46
52935;BME280;38802;50.198;19.796;2023-03-15T02:00:07;95146.45;;;1.84;83.31
52935;BME280;38802;50.198;19.796;2023-03-15T02:02:54;95140.22;;;1.80;83.34
52935;BME280;38802;50.198;19.796;2023-03-15T02:05:29;95146.23;;;1.80;83.51
52935;BME280;38802;50.198;19.796;2023-03-15T02:08:00;95145.64;;;1.79;83.41
52935;BME280;38802;50.198;19.796;2023-03-15T02:10:36;95147.02;;;1.76;83.45
52935;BME280;38802;50.198;19.796;2023-03-15T02:13:07;95149.77;;;1.76;83.50
52935;BME280;38802;50.198;19.796;2023-03-15T02:15:36;95146.19;;;1.73;83.55
52935;BME280;38802;50.198;19.796;2023-03-15T02:18:06;95152.45;;;1.66;83.61
52935;BME280;38802;50.198;19.796;2023-03-15T02:23:17;95174.79;;;1.62;83.81
52935;BME280;38802;50.198;19.796;2023-03-15T02:31:04;95184.38;;;1.54;84.09
52935;BME280;38802;50.198;19.796;2023-03-15T02:33:45;95194.41;;;1.49;84.15
52935;BME280;38802;50.198;19.796;2023-03-15T02:36:18;95197.73;;;1.51;84.14
52935;BME280;38802;50.198;19.796;2023-03-15T02:38:46;95202.82;;;1.49;84.15
52935;BME280;38802;50.198;19.796;2023-03-15T02:41:20;95199.40;;;1.46;84.33
52935;BME280;38802;50.198;19.796;2023-03-15T02:43:54;95204.80;;;1.42;84.38
52935;BME280;38802;50.198;19.796;2023-03-15T02:46:23;95206.36;;;1.39;84.53
52935;BME280;38802;50.198;19.796;2023-03-15T02:48:51;95210.21;;;1.38;84.60
52935;BME280;38802;50.198;19.796;2023-03-15T02:51:22;95210.81;;;1.39;84.77
52935;BME280;38802;50.198;19.796;2023-03-15T02:53:49;95211.58;;;1.35;84.74
52935;BME280;38802;50.198;19.796;2023-03-15T02:56:18;95215.89;;;1.32;84.74
52935;BME280;38802;50.198;19.796;2023-03-15T02:58:45;95217.98;;;1.31;85.02
52935;BME280;38802;50.198;19.796;2023-03-15T03:01:14;95226.23;;;1.27;85.01
52935;BME280;38802;50.198;19.796;2023-03-15T03:03:41;95232.43;;;1.27;85.17
52935;BME280;38802;50.198;19.796;2023-03-15T03:06:09;95236.19;;;1.30;85.11
52935;BME280;38802;50.198;19.796;2023-03-15T03:08:37;95238.83;;;1.32;85.09
52935;BME280;38802;50.198;19.796;2023-03-15T03:11:05;95246.20;;;1.28;85.13
52935;BME280;38802;50.198;19.796;2023-03-15T03:13:32;95247.92;;;1.25;84.96
52935;BME280;38802;50.198;19.796;2023-03-15T03:16:01;95252.25;;;1.21;84.91
52935;BME280;38802;50.198;19.796;2023-03-15T03:18:29;95257.45;;;1.23;84.99
52935;BME280;38802;50.198;19.796;2023-03-15T03:21:03;95267.65;;;1.27;85.28
52935;BME280;38802;50.198;19.796;2023-03-15T03:23:31;95265.81;;;1.26;85.04
52935;BME280;38802;50.198;19.796;2023-03-15T03:25:59;95263.60;;;1.26;85.21
52935;BME280;38802;50.198;19.796;2023-03-15T03:28:28;95261.13;;;1.25;85.31
52935;BME280;38802;50.198;19.796;2023-03-15T03:30:55;95257.64;;;1.23;85.48
52935;BME280;38802;50.198;19.796;2023-03-15T03:33:23;95265.66;;;1.20;85.36
52935;BME280;38802;50.198;19.796;2023-03-15T03:35:50;95268.01;;;1.21;85.47
52935;BME280;38802;50.198;19.796;2023-03-15T03:38:17;95266.63;;;1.21;85.53
52935;BME280;38802;50.198;19.796;2023-03-15T03:40:48;95266.69;;;1.20;85.43
52935;BME280;38802;50.198;19.796;2023-03-15T03:43:15;95274.55;;;1.15;85.26
52935;BME280;38802;50.198;19.796;2023-03-15T03:45:43;95278.30;;;1.15;85.15
52935;BME280;38802;50.198;19.796;2023-03-15T03:48:10;95272.96;;;1.16;85.11
52935;BME280;38802;50.198;19.796;2023-03-15T03:50:36;95280.88;;;1.12;85.15
52935;BME280;38802;50.198;19.796;2023-03-15T03:53:03;95280.98;;;1.11;85.17
52935;BME280;38802;50.198;19.796;2023-03-15T03:55:32;95281.34;;;1.13;85.11
52935;BME280;38802;50.198;19.796;2023-03-15T03:57:59;95287.87;;;1.10;84.89
52935;BME280;38802;50.198;19.796;2023-03-15T04:00:35;95299.84;;;1.10;84.87
52935;BME280;38802;50.198;19.796;2023-03-15T04:03:03;95304.88;;;1.12;84.94
52935;BME280;38802;50.198;19.796;2023-03-15T04:05:32;95314.11;;;1.12;84.79
52935;BME280;38802;50.198;19.796;2023-03-15T04:08:00;95318.20;;;1.09;84.93
52935;BME280;38802;50.198;19.796;2023-03-15T04:10:30;95318.48;;;1.07;84.79
52935;BME280;38802;50.198;19.796;2023-03-15T04:13:00;95314.06;;;1.04;84.66
52935;BME280;38802;50.198;19.796;2023-03-15T04:15:27;95316.52;;;1.00;84.67
52935;BME280;38802;50.198;19.796;2023-03-15T04:17:54;95311.33;;;0.98;84.63
52935;BME280;38802;50.198;19.796;2023-03-15T04:20:29;95314.40;;;0.98;84.86
52935;BME280;38802;50.198;19.796;2023-03-15T04:23:00;95318.87;;;0.98;84.58
52935;BME280;38802;50.198;19.796;2023-03-15T04:25:51;95322.59;;;0.96;84.61
52935;BME280;38802;50.198;19.796;2023-03-15T04:28:38;95333.80;;;0.97;84.23
52935;BME280;38802;50.198;19.796;2023-03-15T04:31:23;95337.23;;;0.93;84.48
52935;BME280;38802;50.198;19.796;2023-03-15T04:34:12;95338.57;;;0.94;84.50
52935;BME280;38802;50.198;19.796;2023-03-15T04:36:59;95341.45;;;0.95;84.22
52935;BME280;38802;50.198;19.796;2023-03-15T04:39:33;95340.21;;;0.92;84.27
52935;BME280;38802;50.198;19.796;2023-03-15T04:42:22;95332.45;;;0.93;83.88
52935;BME280;38802;50.198;19.796;2023-03-15T04:45:06;95329.48;;;0.89;83.81
52935;BME280;38802;50.198;19.796;2023-03-15T04:47:42;95332.71;;;0.86;83.87
52935;BME280;38802;50.198;19.796;2023-03-15T04:50:23;95337.58;;;0.88;83.48
52935;BME280;38802;50.198;19.796;2023-03-15T04:53:00;95340.79;;;0.85;83.53
52935;BME280;38802;50.198;19.796;2023-03-15T04:55:44;95350.09;;;0.84;83.44
52935;BME280;38802;50.198;19.796;2023-03-15T04:58:21;95353.91;;;0.83;83.53
52935;BME280;38802;50.198;19.796;2023-03-15T05:01:08;95363.27;;;0.84;83.24
52935;BME280;38802;50.198;19.796;2023-03-15T05:03:49;95366.30;;;0.82;83.08
52935;BME280;38802;50.198;19.796;2023-03-15T05:06:54;95364.42;;;0.79;82.97
52935;BME280;38802;50.198;19.796;2023-03-15T05:09:33;95369.66;;;0.80;82.55
52935;BME280;38802;50.198;19.796;2023-03-15T05:12:32;95368.10;;;0.77;82.63
52935;BME280;38802;50.198;19.796;2023-03-15T05:15:14;95374.09;;;0.74;82.78
52935;BME280;38802;50.198;19.796;2023-03-15T05:18:04;95373.70;;;0.75;82.93
52935;BME280;38802;50.198;19.796;2023-03-15T05:20:47;95382.05;;;0.73;82.76
52935;BME280;38802;50.198;19.796;2023-03-15T05:23:32;95383.42;;;0.73;82.35
52935;BME280;38802;50.198;19.796;2023-03-15T05:26:13;95384.05;;;0.71;82.56
52935;BME280;38802;50.198;19.796;2023-03-15T05:28:55;95388.46;;;0.71;82.08
52935;BME280;38802;50.198;19.796;2023-03-15T05:31:45;95394.70;;;0.73;82.26
52935;BME280;38802;50.198;19.796;2023-03-15T05:34:30;95402.70;;;0.67;82.14
52935;BME280;38802;50.198;19.796;2023-03-15T05:36:58;95407.72;;;0.69;82.52
52935;BME280;38802;50.198;19.796;2023-03-15T05:39:46;95408.76;;;0.72;82.26
52935;BME280;38802;50.198;19.796;2023-03-15T05:42:34;95411.59;;;0.73;82.45
52935;BME280;38802;50.198;19.796;2023-03-15T05:45:19;95421.56;;;0.75;82.07
52935;BME280;38802;50.198;19.796;2023-03-15T05:47:49;95429.27;;;0.75;82.25
52935;BME280;38802;50.198;19.796;2023-03-15T05:50:39;95435.91;;;0.79;82.38
52935;BME280;38802;50.198;19.796;2023-03-15T05:53:15;95443.09;;;0.81;82.03
52935;BME280;38802;50.198;19.796;2023-03-15T05:56:02;95453.09;;;0.83;82.17
52935;BME280;38802;50.198;19.796;2023-03-15T05:59:07;95458.76;;;0.82;82.02
52935;BME280;38802;50.198;19.796;2023-03-15T06:01:34;95458.36;;;0.83;81.79
52935;BME280;38802;50.198;19.796;2023-03-15T06:04:09;95457.89;;;0.83;81.80
52935;BME280;38802;50.198;19.796;2023-03-15T06:06:35;95456.27;;;0.84;82.01
52935;BME280;38802;50.198;19.796;2023-03-15T06:09:04;95466.13;;;0.88;82.00
52935;BME280;38802;50.198;19.796;2023-03-15T06:11:31;95468.58;;;0.91;81.79
52935;BME280;38802;50.198;19.796;2023-03-15T06:13:58;95475.41;;;0.93;81.98
52935;BME280;38802;50.198;19.796;2023-03-15T06:16:33;95479.71;;;0.97;81.80
52935;BME280;38802;50.198;19.796;2023-03-15T06:19:01;95485.17;;;0.97;81.69
52935;BME280;38802;50.198;19.796;2023-03-15T06:21:29;95490.90;;;0.98;81.82
52935;BME280;38802;50.198;19.796;2023-03-15T06:23:56;95501.56;;;1.00;81.70
52935;BME280;38802;50.198;19.796;2023-03-15T06:26:22;95509.17;;;1.02;81.49
52935;BME280;38802;50.198;19.796;2023-03-15T06:28:52;95521.65;;;1.05;81.51
52935;BME280;38802;50.198;19.796;2023-03-15T06:31:19;95523.77;;;1.07;81.53
52935;BME280;38802;50.198;19.796;2023-03-15T06:33:50;95523.59;;;1.10;81.66
52935;BME280;38802;50.198;19.796;2023-03-15T06:36:17;95527.11;;;1.14;81.43
52935;BME280;38802;50.198;19.796;2023-03-15T06:38:43;95530.34;;;1.15;81.23
52935;BME280;38802;50.198;19.796;2023-03-15T06:41:10;95534.54;;;1.13;81.25
52935;BME280;38802;50.198;19.796;2023-03-15T06:43:41;95544.52;;;1.12;81.34
52935;BME280;38802;50.198;19.796;2023-03-15T06:46:08;95547.88;;;1.16;81.17
52935;BME280;38802;50.198;19.796;2023-03-15T06:48:34;95550.54;;;1.17;81.12
52935;BME280;38802;50.198;19.796;2023-03-15T06:51:01;95558.14;;;1.16;80.93
52935;BME280;38802;50.198;19.796;2023-03-15T06:53:31;95559.71;;;1.15;80.78
52935;BME280;38802;50.198;19.796;2023-03-15T06:55:58;95561.35;;;1.17;80.85
52935;BME280;38802;50.198;19.796;2023-03-15T06:58:24;95564.94;;;1.20;80.53
52935;BME280;38802;50.198;19.796;2023-03-15T07:00:51;95564.70;;;1.18;80.60
52935;BME280;38802;50.198;19.796;2023-03-15T07:03:18;95566.82;;;1.19;80.76
52935;BME280;38802;50.198;19.796;2023-03-15T07:05:46;95568.55;;;1.25;80.94
52935;BME280;38802;50.198;19.796;2023-03-15T07:08:18;95574.84;;;1.33;80.71
52935;BME280;38802;50.198;19.796;2023-03-15T07:10:45;95582.16;;;1.39;80.45
52935;BME280;38802;50.198;19.796;2023-03-15T07:13:12;95583.35;;;1.45;80.29
52935;BME280;38802;50.198;19.796;2023-03-15T07:15:39;95576.67;;;1.51;80.39
52935;BME280;38802;50.198;19.796;2023-03-15T07:18:06;95575.55;;;1.56;80.16
52935;BME280;38802;50.198;19.796;2023-03-15T07:20:33;95574.98;;;1.57;80.18
52935;BME280;38802;50.198;19.796;2023-03-15T07:23:03;95572.06;;;1.60;79.96
52935;BME280;38802;50.198;19.796;2023-03-15T07:25:31;95574.16;;;1.60;79.97
52935;BME280;38802;50.198;19.796;2023-03-15T07:28:01;95570.80;;;1.61;79.70
52935;BME280;38802;50.198;19.796;2023-03-15T07:30:28;95573.27;;;1.60;79.95
52935;BME280;38802;50.198;19.796;2023-03-15T07:32:55;95569.10;;;1.64;79.73
52935;BME280;38802;50.198;19.796;2023-03-15T07:35:22;95570.02;;;1.63;78.96
52935;BME280;38802;50.198;19.796;2023-03-15T07:37:48;95571.04;;;1.60;79.00
52935;BME280;38802;50.198;19.796;2023-03-15T07:40:15;95578.79;;;1.59;79.05
52935;BME280;38802;50.198;19.796;2023-03-15T07:42:42;95581.92;;;1.58;78.79
52935;BME280;38802;50.198;19.796;2023-03-15T07:45:09;95582.70;;;1.60;79.13
52935;BME280;38802;50.198;19.796;2023-03-15T07:47:36;95582.41;;;1.62;78.71
52935;BME280;38802;50.198;19.796;2023-03-15T07:50:04;95585.81;;;1.62;78.36
52935;BME280;38802;50.198;19.796;2023-03-15T07:52:31;95591.05;;;1.61;78.42
52935;BME280;38802;50.198;19.796;2023-03-15T07:54:58;95598.65;;;1.62;78.76
52935;BME280;38802;50.198;19.796;2023-03-15T07:57:24;95601.77;;;1.70;78.73
52935;BME280;38802;50.198;19.796;2023-03-15T07:59:54;95603.85;;;1.79;78.43
52935;BME280;38802;50.198;19.796;2023-03-15T08:02:21;95606.34;;;1.86;78.51
52935;BME280;38802;50.198;19.796;2023-03-15T08:04:48;95610.87;;;1.94;78.31
52935;BME280;38802;50.198;19.796;2023-03-15T08:07:16;95618.90;;;1.98;78.09
52935;BME280;38802;50.198;19.796;2023-03-15T08:09:43;95628.95;;;2.04;77.78
52935;BME280;38802;50.198;19.796;2023-03-15T08:12:10;95632.98;;;2.05;77.79
52935;BME280;38802;50.198;19.796;2023-03-15T08:14:37;95637.57;;;2.09;77.72
52935;BME280;38802;50.198;19.796;2023-03-15T08:17:04;95639.78;;;2.12;77.58
52935;BME280;38802;50.198;19.796;2023-03-15T08:19:31;95640.14;;;2.18;76.70
52935;BME280;38802;50.198;19.796;2023-03-15T08:21:58;95642.38;;;2.14;76.63
52935;BME280;38802;50.198;19.796;2023-03-15T08:24:24;95638.69;;;2.16;76.41
52935;BME280;38802;50.198;19.796;2023-03-15T08:26:52;95638.01;;;2.19;76.21
52935;BME280;38802;50.198;19.796;2023-03-15T08:29:19;95637.95;;;2.23;76.32
52935;BME280;38802;50.198;19.796;2023-03-15T08:31:45;95637.85;;;2.28;75.65
52935;BME280;38802;50.198;19.796;2023-03-15T08:34:12;95639.90;;;2.34;75.22
52935;BME280;38802;50.198;19.796;2023-03-15T08:36:39;95639.52;;;2.37;75.50
52935;BME280;38802;50.198;19.796;2023-03-15T08:39:07;95643.63;;;2.43;75.74
52935;BME280;38802;50.198;19.796;2023-03-15T08:41:34;95644.71;;;2.50;75.73
52935;BME280;38802;50.198;19.796;2023-03-15T08:44:00;95646.40;;;2.60;75.09
52935;BME280;38802;50.198;19.796;2023-03-15T08:46:27;95647.31;;;2.62;74.57
52935;BME280;38802;50.198;19.796;2023-03-15T08:48:53;95645.80;;;2.64;74.51
52935;BME280;38802;50.198;19.796;2023-03-15T08:51:20;95652.90;;;2.63;74.14
52935;BME280;38802;50.198;19.796;2023-03-15T08:53:47;95653.19;;;2.61;74.42
52935;BME280;38802;50.198;19.796;2023-03-15T08:56:13;95650.86;;;2.63;73.99
52935;BME280;38802;50.198;19.796;2023-03-15T08:58:40;95648.54;;;2.61;73.32
52935;BME280;38802;50.198;19.796;2023-03-15T09:01:09;95652.52;;;2.58;73.15
52935;BME280;38802;50.198;19.796;2023-03-15T09:03:36;95656.11;;;2.55;73.27
52935;BME280;38802;50.198;19.796;2023-03-15T09:06:03;95660.53;;;2.55;72.92
52935;BME280;38802;50.198;19.796;2023-03-15T09:08:29;95668.77;;;2.56;73.21
52935;BME280;38802;50.198;19.796;2023-03-15T09:10:59;95671.73;;;2.61;73.11
52935;BME280;38802;50.198;19.796;2023-03-15T09:13:27;95674.44;;;2.64;72.97
52935;BME280;38802;50.198;19.796;2023-03-15T09:15:55;95678.14;;;2.68;73.01
52935;BME280;38802;50.198;19.796;2023-03-15T09:18:23;95679.43;;;2.72;73.19
52935;BME280;38802;50.198;19.796;2023-03-15T09:20:50;95685.38;;;2.76;72.76
52935;BME280;38802;50.198;19.796;2023-03-15T09:23:16;95691.63;;;2.80;72.91
52935;BME280;38802;50.198;19.796;2023-03-15T09:25:43;95692.36;;;2.88;72.28
52935;BME280;38802;50.198;19.796;2023-03-15T09:28:10;95693.13;;;2.90;72.70
52935;BME280;38802;50.198;19.796;2023-03-15T09:30:38;95691.91;;;2.93;72.26
52935;BME280;38802;50.198;19.796;2023-03-15T09:33:05;95689.98;;;2.96;71.86
52935;BME280;38802;50.198;19.796;2023-03-15T09:35:32;95696.98;;;2.97;71.49
52935;BME280;38802;50.198;19.796;2023-03-15T09:37:59;95695.95;;;2.97;70.62
52935;BME280;38802;50.198;19.796;2023-03-15T09:40:32;95699.19;;;2.97;70.51
52935;BME280;38802;50.198;19.796;2023-03-15T09:45:41;95702.17;;;2.91;69.60
52935;BME280;38802;50.198;19.796;2023-03-15T09:51:08;95693.46;;;2.93;70.13
52935;BME280;38802;50.198;19.796;2023-03-15T09:53:50;95698.33;;;2.94;70.20
52935;BME280;38802;50.198;19.796;2023-03-15T09:56:33;95686.74;;;3.04;69.53
52935;BME280;38802;50.198;19.796;2023-03-15T09:59:02;95687.26;;;3.05;69.72
52935;BME280;38802;50.198;19.796;2023-03-15T10:01:39;95684.13;;;3.08;69.69
52935;BME280;38802;50.198;19.796;2023-03-15T10:04:17;95684.88;;;3.10;69.68
52935;BME280;38802;50.198;19.796;2023-03-15T10:06:48;95691.05;;;3.13;69.40
52935;BME280;38802;50.198;19.796;2023-03-15T10:09:21;95697.04;;;3.13;69.29
52935;BME280;38802;50.198;19.796;2023-03-15T10:12:13;95703.39;;;3.16;68.97
52935;BME280;38802;50.198;19.796;2023-03-15T10:20:15;95714.58;;;3.18;68.10
52935;BME280;38802;50.198;19.796;2023-03-15T10:23:08;95715.79;;;3.18;67.97
52935;BME280;38802;50.198;19.796;2023-03-15T10:25:38;95723.79;;;3.19;68.20
52935;BME280;38802;50.198;19.796;2023-03-15T10:30:35;95729.73;;;3.25;67.31
52935;BME280;38802;50.198;19.796;2023-03-15T10:33:29;95735.57;;;3.26;66.61
52935;BME280;38802;50.198;19.796;2023-03-15T10:36:01;95736.80;;;3.22;67.35
52935;BME280;38802;50.198;19.796;2023-03-15T10:38:38;95746.95;;;3.25;66.50
52935;BME280;38802;50.198;19.796;2023-03-15T10:41:06;95744.52;;;3.25;66.40
52935;BME280;38802;50.198;19.796;2023-03-15T10:43:34;95748.16;;;3.24;65.85
52935;BME280;38802;50.198;19.796;2023-03-15T10:46:09;95750.23;;;3.19;65.92
52935;BME280;38802;50.198;19.796;2023-03-15T10:49:07;95749.30;;;3.18;65.84
52935;BME280;38802;50.198;19.796;2023-03-15T10:51:43;95753.91;;;3.18;66.67
52935;BME280;38802;50.198;19.796;2023-03-15T10:54:18;95753.45;;;3.22;65.83
52935;BME280;38802;50.198;19.796;2023-03-15T10:56:57;95755.92;;;3.27;65.85
52935;BME280;38802;50.198;19.796;2023-03-15T10:59:30;95753.54;;;3.32;66.06
52935;BME280;38802;50.198;19.796;2023-03-15T11:02:26;95755.52;;;3.36;65.65
52935;BME280;38802;50.198;19.796;2023-03-15T11:05:14;95762.15;;;3.40;66.44
52935;BME280;38802;50.198;19.796;2023-03-15T11:07:56;95752.80;;;3.47;66.01
52935;BME280;38802;50.198;19.796;2023-03-15T11:10:25;95756.29;;;3.52;65.56
52935;BME280;38802;50.198;19.796;2023-03-15T11:13:11;95758.17;;;3.57;65.44
52935;BME280;38802;50.198;19.796;2023-03-15T11:15:42;95761.00;;;3.61;65.04
52935;BME280;38802;50.198;19.796;2023-03-15T11:18:18;95758.92;;;3.59;64.99
52935;BME280;38802;50.198;19.796;2023-03-15T11:20:46;95760.22;;;3.58;64.93
52935;BME280;38802;50.198;19.796;2023-03-15T11:23:23;95759.33;;;3.61;65.38
52935;BME280;38802;50.198;19.796;2023-03-15T11:25:52;95754.70;;;3.68;65.06
52935;BME280;38802;50.198;19.796;2023-03-15T11:28:25;95752.15;;;3.68;64.65
52935;BME280;38802;50.198;19.796;2023-03-15T11:30:54;95747.42;;;3.69;64.76
52935;BME280;38802;50.198;19.796;2023-03-15T11:33:32;95742.65;;;3.77;64.74
52935;BME280;38802;50.198;19.796;2023-03-15T11:36:20;95735.54;;;3.81;64.65
52935;BME280;38802;50.198;19.796;2023-03-15T11:38:48;95736.61;;;3.91;64.46
52935;BME280;38802;50.198;19.796;2023-03-15T11:41:34;95744.20;;;3.99;64.04
52935;BME280;38802;50.198;19.796;2023-03-15T11:46:49;95745.19;;;4.02;64.19
52935;BME280;38802;50.198;19.796;2023-03-15T11:49:32;95740.27;;;4.04;63.37
52935;BME280;38802;50.198;19.796;2023-03-15T11:52:00;95745.64;;;4.03;64.15
52935;BME280;38802;50.198;19.796;2023-03-15T11:54:29;95742.40;;;4.11;63.91
52935;BME280;38802;50.198;19.796;2023-03-15T11:59:29;95753.52;;;4.15;63.27
52935;BME280;38802;50.198;19.796;2023-03-15T12:04:44;95760.60;;;4.11;63.27
52935;BME280;38802;50.198;19.796;2023-03-15T12:17:53;95753.30;;;4.13;62.77
52935;BME280;38802;50.198;19.796;2023-03-15T12:20:40;95756.02;;;4.13;61.90
52935;BME280;38802;50.198;19.796;2023-03-15T12:25:50;95764.27;;;4.07;61.82
52935;BME280;38802;50.198;19.796;2023-03-15T12:28:49;95764.96;;;4.02;61.88
52935;BME280;38802;50.198;19.796;2023-03-15T12:31:12;95766.83;;;4.00;61.90
52935;BME280;38802;50.198;19.796;2023-03-15T12:33:51;95765.48;;;3.99;61.36
52935;BME280;38802;50.198;19.796;2023-03-15T12:38:57;95768.10;;;4.04;62.01
52935;BME280;38802;50.198;19.796;2023-03-15T12:41:39;95768.68;;;4.11;61.71
52935;BME280;38802;50.198;19.796;2023-03-15T12:44:24;95771.98;;;4.16;61.65
52935;BME280;38802;50.198;19.796;2023-03-15T12:46:53;95768.62;;;4.18;61.50
52935;BME280;38802;50.198;19.796;2023-03-15T12:54:25;95766.46;;;4.29;60.79
52935;BME280;38802;50.198;19.796;2023-03-15T12:57:01;95766.50;;;4.29;61.29
52935;BME280;38802;50.198;19.796;2023-03-15T12:59:32;95764.60;;;4.31;60.59
52935;BME280;38802;50.198;19.796;2023-03-15T13:02:02;95774.81;;;4.28;60.47
52935;BME280;38802;50.198;19.796;2023-03-15T13:04:34;95776.06;;;4.25;60.24
52935;BME280;38802;50.198;19.796;2023-03-15T13:12:27;95785.31;;;4.20;60.41
52935;BME280;38802;50.198;19.796;2023-03-15T13:20:32;95785.63;;;4.26;60.77
52935;BME280;38802;50.198;19.796;2023-03-15T13:23:19;95785.59;;;4.31;59.97
52935;BME280;38802;50.198;19.796;2023-03-15T13:25:53;95786.17;;;4.36;60.01
52935;BME280;38802;50.198;19.796;2023-03-15T13:28:38;95782.85;;;4.34;59.91
52935;BME280;38802;50.198;19.796;2023-03-15T13:31:12;95778.20;;;4.31;60.12
52935;BME280;38802;50.198;19.796;2023-03-15T13:33:46;95782.76;;;4.36;60.47
52935;BME280;38802;50.198;19.796;2023-03-15T13:36:18;95786.08;;;4.43;60.66
52935;BME280;38802;50.198;19.796;2023-03-15T13:38:49;95789.95;;;4.50;60.03
52935;BME280;38802;50.198;19.796;2023-03-15T13:41:25;95794.16;;;4.46;59.94
52935;BME280;38802;50.198;19.796;2023-03-15T13:43:55;95799.63;;;4.35;59.71
52935;BME280;38802;50.198;19.796;2023-03-15T13:46:24;95800.70;;;4.29;60.44
52935;BME280;38802;50.198;19.796;2023-03-15T13:48:54;95801.75;;;4.31;60.12
52935;BME280;38802;50.198;19.796;2023-03-15T13:51:28;95807.95;;;4.26;59.67
52935;BME280;38802;50.198;19.796;2023-03-15T13:54:16;95806.30;;;4.20;59.62
52935;BME280;38802;50.198;19.796;2023-03-15T13:57:10;95809.00;;;4.21;59.56
52935;BME280;38802;50.198;19.796;2023-03-15T13:59:47;95811.88;;;4.16;59.71
52935;BME280;38802;50.198;19.796;2023-03-15T14:02:34;95817.02;;;4.21;59.21
52935;BME280;38802;50.198;19.796;2023-03-15T14:05:06;95822.67;;;4.17;59.11
52935;BME280;38802;50.198;19.796;2023-03-15T14:07:39;95828.43;;;4.15;59.24
52935;BME280;38802;50.198;19.796;2023-03-15T14:10:33;95832.02;;;4.13;59.36
52935;BME280;38802;50.198;19.796;2023-03-15T14:13:23;95842.77;;;4.05;59.20
52935;BME280;38802;50.198;19.796;2023-03-15T14:16:05;95847.14;;;3.99;58.69
52935;BME280;38802;50.198;19.796;2023-03-15T14:18:36;95850.38;;;3.86;59.02
52935;BME280;38802;50.198;19.796;2023-03-15T14:23:38;95847.73;;;3.75;58.65
52935;BME280;38802;50.198;19.796;2023-03-15T14:26:28;95853.14;;;3.71;59.03
52935;BME280;38802;50.198;19.796;2023-03-15T14:29:04;95852.45;;;3.71;59.07
52935;BME280;38802;50.198;19.796;2023-03-15T14:31:39;95857.52;;;3.70;58.21
52935;BME280;38802;50.198;19.796;2023-03-15T14:34:15;95856.64;;;3.67;58.22